ADDS METAR Data INFO
IDs: Format: Raw Decoded Include TAF

Data at: 0726 UTC 16 Jan 2018

METAR for:PADU (Dutch Harbor/Madsen, AK, US)
Text:PADU 160256Z 21004KT 6SM -SN BR SCT001 BKN008 OVC012 01/M01 A2931 RMK BP
Temperature: 1.0°C ( 34°F)
Dewpoint: -1.0°C ( 30°F) [RH = 86%]
Pressure (altimeter):29.31 inches Hg ( 992.6 mb)
Winds:from the SSW (210 degrees) at 5 MPH (4 knots; 2.1 m/s)
Visibility: 6 sm ( 10 km)
Ceiling:800 feet AGL
Clouds: scattered clouds at 100 feet AGL, broken clouds at 800 feet AGL, overcast cloud deck at 1200 feet AGL
Weather:-SN BR (light snow, mist)
Text:PADU 160240Z 21004KT 6SM -SN BR BKN008 OVC012 01/M01 A2931 RMK BP
Temperature: 1.0°C ( 34°F)
Dewpoint: -1.0°C ( 30°F) [RH = 86%]
Pressure (altimeter):29.31 inches Hg ( 992.6 mb)
Winds:from the SSW (210 degrees) at 5 MPH (4 knots; 2.1 m/s)
Visibility: 6 sm ( 10 km)
Ceiling:800 feet AGL
Clouds: broken clouds at 800 feet AGL, overcast cloud deck at 1200 feet AGL
Weather:-SN BR (light snow, mist)
Text:PADU 160215Z 21004KT 2SM -SN BR SCT001 BKN003 OVC008 01/M01 A2930 RMK BP
Temperature: 1.0°C ( 34°F)
Dewpoint: -1.0°C ( 30°F) [RH = 86%]
Pressure (altimeter):29.30 inches Hg ( 992.3 mb)
Winds:from the SSW (210 degrees) at 5 MPH (4 knots; 2.1 m/s)
Visibility: 2.00 sm ( 3.22 km)
Ceiling:300 feet AGL
Clouds: scattered clouds at 100 feet AGL, broken clouds at 300 feet AGL, overcast cloud deck at 800 feet AGL
Weather:-SN BR (light snow, mist)
Text:PADU 160148Z 21004KT 2SM -SN BR OVC003 01/M01 A2929 RMK VIS NW 3 CS
Temperature: 1.0°C ( 34°F)
Dewpoint: -1.0°C ( 30°F) [RH = 86%]
Pressure (altimeter):29.29 inches Hg ( 992.0 mb)
Winds:from the SSW (210 degrees) at 5 MPH (4 knots; 2.1 m/s)
Visibility: 2.00 sm ( 3.22 km)
Ceiling:300 feet AGL
Clouds: overcast cloud deck at 300 feet AGL
Weather:-SN BR (light snow, mist)
Text:PADU 160128Z 30005KT 1 1/2SM -SN BR OVC003 01/01 A2929 RMK VIS NW 4 CS
Temperature: 1.0°C ( 34°F)
Dewpoint: 1.0°C ( 34°F) [RH = 100%]
Pressure (altimeter):29.29 inches Hg ( 992.0 mb)
Winds:from the WNW (300 degrees) at 6 MPH (5 knots; 2.6 m/s)
Visibility: 1.50 sm ( 2.41 km)
Ceiling:300 feet AGL
Clouds: overcast cloud deck at 300 feet AGL
Weather:-SN BR (light snow, mist)

TAF for:PADU (Dutch Harbor/Madsen, AK, US) issued at 0527 UTC 16 Jan 2018
Text:PADU 160527Z 1606/1706 32008KT 6SM -RASN BR BKN008 OVC012
Forecast period:0600 to 1100 UTC 16 January 2018
Forecast type:FROM: standard forecast or significant change
Winds:from the NW (320 degrees) at 9 MPH (8 knots; 4.1 m/s)
Visibility: 6 sm ( 10 km)
Ceiling:800 feet AGL
Clouds: broken clouds at 800 feet AGL, overcast cloud deck at 1200 feet AGL
Weather:-RA -SN BR (light rain, light snow, mist)
Text:TEMPO 1606/1610 2SM -SN BKN003 OVC008
Forecast period:0600 to 1000 UTC 16 January 2018
Forecast type:TEMPORARY: The following changes expected for less than half the time period
Visibility: 2.00 sm ( 3.22 km)
Ceiling:300 feet AGL
Clouds: broken clouds at 300 feet AGL, overcast cloud deck at 800 feet AGL
Weather:-SN (light snow)
Text:FM161100 33010G20KT 4SM -SN SCT008 BKN015 OVC025
Forecast period:1100 to 1800 UTC 16 January 2018
Forecast type:FROM: standard forecast or significant change
Winds:from the NNW (330 degrees) at 12 MPH (10 knots; 5.1 m/s) gusting to 23 MPH (20 knots; 10.3 m/s)
Visibility: 4 sm ( 6 km)
Ceiling:1500 feet AGL
Clouds: scattered clouds at 800 feet AGL, broken clouds at 1500 feet AGL, overcast cloud deck at 2500 feet AGL
Weather:-SN (light snow)
Text:FM161800 34017G25KT 6SM -SHSN BKN025
Forecast period:1800 UTC 16 January 2018 to 0600 UTC 17 January 2018
Forecast type:FROM: standard forecast or significant change
Winds:from the NNW (340 degrees) at 20 MPH (17 knots; 8.7 m/s) gusting to 29 MPH (25 knots; 12.9 m/s)
Visibility: 6 sm ( 10 km)
Ceiling:2500 feet AGL
Clouds: broken clouds at 2500 feet AGL
Weather:-SHSN (light snow showers)